Terminal Aerodrome Forecast
Issued by NWS

Home | Current Version | Previous Version | Graphics & Text | Print | Product List | Glossary On
Versions: 1 2 3 4 5 6 7 8 9 10 11 12 13 14 15
986
FTUS43 KGRB 121729
TAFAUW
TAF
KAUW 121729Z 1218/1318 32015G24KT P6SM -SHSN BKN035
     FM122300 31009KT P6SM SCT035
     FM131400 29006KT P6SM SCT035=

USA.gov is the U.S. government's official web portal to all federal, state and local government web resources and services.